Portada
METAR-TAF:

METAR-TAF

Aeropuertos :

Dar es Salaam, Tanzania

Aeropuerto Internacional Julius Nyerere

latitud: 06-52S, longitud: 039-12E, altitud: 55 m

Observación

El informe se hizo hace 31 minutos, a las 20:00 UTC
Viento 8 kt del norte-noreste
Temperatura 27°C
Humedad 84%
Presión 1013 hPa
Visibilidad 10 km o más
Escasas nubes a una altura de 1500 ft

METAR: HTDA 162000Z 03008KT 9999 FEW015 27/24 Q1013 NOSIG

Hora: 23:31 (20:31 UTC)

Pronóstico

El informe se hizo hace 3 horas y 31 minutos, a las 17:00 UTC
Pronóstico válido del 16 a las 18 UTC al 17 a las 24 UTC
Viento 15 kt del norte-noreste
Visibilidad 10 km o más
Nubes dispersas a una altura de 1600 ft
Evolucionando progresivamente
del 17 a las 06 UTC al 17 a las 09 UTC
Viento 5 kt del norte-noroeste
Cielo nuboso a una altura de 1800 ft
chaparrones de lluvia

TAF: HTDA 161700Z 1618/1724 03015KT 9999 SCT016 BECMG 1706/1709 33005KT SHRA BKN018

Observaciones y pronósticos meteorológicos de más de 4000 aeropuertos (mensajes METAR y TAF).

Los puntos amarillos y rojos representan las estaciones disponibles.

Ponga el ratón en el punto deseado para ver el nombre de la estación.

Haga clic para ver las observaciones y los pronósticos meteorológicos.

Para cambiar el mapa : haga clic en los botones verdes con una cruz de color negro para hacer un zoom, en el botón verde con un guión para alejar o en las flechas verdes para mapas adyacentes.


METAR-TAF: